CheckWX is a tool to help pilots better visualize weather data.  It is not intended as a substitute for an official pre-flight weather briefing.

07:04:53 UTC

VTUD TAF
Udon Thani Airport
Udon Thani, Thailand
TAF VTUD 190500Z 1906/2006 20010KT 9999 SCT025 TEMPO 1907/1911 VRB15KT 5000 TSRA FEW020CB BKN025 BECMG 1911/1913 19005KT

Jun-19@
06:00 UTC

Jun-19 @ 06:00 UTC

Jun-19@
11:00 UTC

Jun-19 @ 11:00 UTC

TAF VTUD 190500Z 1906/2006 20010KT 9999 SCT025
Wind
  • 200° at 10 KTS
Cloud Levels
  • Scattered at 2,500' AGL

Jun-19@
07:00 UTC

Jun-19 @ 07:00 UTC

Jun-19@
11:00 UTC

Jun-19 @ 11:00 UTC

TEMPO 1907/1911 VRB15KT 5000 TSRA FEW020CB BKN025

Temporary

Temporary Changes expected for less than half the time period

Wind
  • Variable at 15 KTS
Conditions
Thunderstorm, Rain
Cloud Levels
  • Few at 2,000' AGL
  • Broken at 2,500' AGL

Jun-19@
11:00 UTC

Jun-19 @ 11:00 UTC

Jun-20@
06:00 UTC

Jun-20 @ 06:00 UTC

BECMG 1911/1913 19005KT

Becoming

Becoming Conditions expected by Wed, Jun 19, 2019 @ 13:00 UTC

Wind
  • 190° at 5 KTS
Cloud Levels
  • Scattered at 2,500' AGL